createdAt,value
2022-10-22T00:01:10.351Z,14.30
2022-10-22T00:03:38.356Z,14.40
2022-10-22T00:06:06.729Z,14.40
2022-10-22T00:08:34.828Z,14.40
2022-10-22T00:11:09.698Z,14.30
2022-10-22T00:13:37.666Z,14.30
2022-10-22T00:16:05.794Z,14.30
2022-10-22T00:18:35.037Z,14.30
2022-10-22T00:21:03.391Z,14.30
2022-10-22T00:23:31.290Z,14.30
2022-10-22T00:25:59.238Z,14.30
2022-10-22T00:28:27.455Z,14.20
2022-10-22T00:30:58.460Z,14.30
2022-10-22T00:33:26.421Z,14.30
2022-10-22T00:35:56.280Z,14.30
2022-10-22T00:38:24.175Z,14.30
2022-10-22T00:40:52.269Z,14.30
2022-10-22T00:43:21.098Z,14.30
2022-10-22T00:45:51.836Z,14.20
2022-10-22T00:48:23.069Z,14.20
2022-10-22T00:50:55.513Z,14.10
2022-10-22T00:53:30.920Z,14.10
2022-10-22T00:55:59.334Z,14.10
2022-10-22T00:58:30.417Z,14.20
2022-10-22T01:00:58.958Z,14.20
2022-10-22T01:03:27.055Z,14.10
2022-10-22T01:05:58.855Z,14.10
2022-10-22T01:08:36.927Z,14.10
2022-10-22T01:11:16.173Z,14.00
2022-10-22T01:13:52.446Z,13.90
2022-10-22T01:16:25.252Z,13.80
2022-10-22T01:19:02.406Z,13.80
2022-10-22T01:21:35.004Z,13.70
2022-10-22T01:24:22.247Z,13.70
2022-10-22T01:27:04.781Z,13.70
2022-10-22T01:29:38.602Z,13.70
2022-10-22T01:32:10.946Z,13.80
2022-10-22T01:34:41.437Z,13.80
2022-10-22T01:37:10.958Z,13.90
2022-10-22T01:39:41.297Z,14.00
2022-10-22T01:42:09.177Z,14.00
2022-10-22T01:44:38.524Z,14.00
2022-10-22T01:47:17.296Z,14.00
2022-10-22T01:50:05.572Z,14.00
2022-10-22T01:52:56.510Z,14.00
2022-10-22T01:55:30.550Z,14.00
2022-10-22T01:58:10.841Z,14.10
2022-10-22T02:00:45.595Z,14.10
2022-10-22T02:03:22.926Z,14.10
2022-10-22T02:05:55.122Z,14.10
2022-10-22T02:08:25.846Z,14.20
2022-10-22T02:10:54.527Z,14.20
2022-10-22T02:13:26.884Z,14.20
2022-10-22T02:15:58.567Z,14.20
2022-10-22T02:18:33.570Z,14.10
2022-10-22T02:21:03.710Z,14.20
2022-10-22T02:23:31.683Z,14.20
2022-10-22T02:26:04.308Z,14.10
2022-10-22T02:28:31.100Z,14.10
2022-10-22T02:31:07.242Z,14.10
2022-10-22T02:33:40.391Z,14.10
2022-10-22T02:36:09.934Z,14.10
2022-10-22T02:38:39.624Z,14.10
2022-10-22T02:41:07.822Z,14.10
2022-10-22T02:43:43.380Z,14.00
2022-10-22T02:46:12.915Z,14.10
2022-10-22T02:48:40.872Z,14.10
2022-10-22T02:51:09.123Z,14.10
2022-10-22T02:53:37.040Z,14.10
2022-10-22T02:56:05.787Z,14.10
2022-10-22T02:58:33.706Z,14.20
2022-10-22T03:01:02.017Z,14.20
2022-10-22T03:03:31.318Z,14.40
2022-10-22T03:05:59.215Z,14.40
2022-10-22T03:08:27.564Z,14.40
2022-10-22T03:10:55.445Z,14.40
2022-10-22T03:13:25.268Z,14.50
2022-10-22T03:15:53.177Z,14.50
2022-10-22T03:18:21.086Z,14.40
2022-10-22T03:20:50.318Z,14.40
2022-10-22T03:23:20.719Z,14.40
2022-10-22T03:25:50.310Z,14.40
2022-10-22T03:28:19.617Z,14.40
2022-10-22T03:30:47.635Z,14.40
2022-10-22T03:33:15.590Z,14.40
2022-10-22T03:35:47.024Z,14.30
2022-10-22T03:38:17.043Z,14.30
2022-10-22T03:40:47.206Z,14.20
2022-10-22T03:43:15.233Z,14.30
2022-10-22T03:45:43.198Z,14.20
2022-10-22T03:48:11.104Z,14.20
2022-10-22T03:50:38.970Z,14.20
2022-10-22T03:53:07.158Z,14.10
2022-10-22T03:55:38.093Z,14.10
2022-10-22T03:58:06.429Z,14.10
2022-10-22T04:00:36.429Z,14.10
2022-10-22T04:03:04.587Z,14.10
2022-10-22T04:05:33.821Z,14.10
2022-10-22T04:08:02.078Z,14.10
2022-10-22T04:10:29.967Z,14.10
2022-10-22T04:12:59.292Z,14.10
2022-10-22T04:15:28.951Z,14.10
2022-10-22T04:17:56.923Z,14.10
2022-10-22T04:20:24.829Z,14.10
2022-10-22T04:22:52.720Z,14.10
2022-10-22T04:25:20.644Z,14.10
2022-10-22T04:27:48.555Z,14.10
2022-10-22T04:30:18.033Z,14.10
2022-10-22T04:32:45.934Z,14.00
2022-10-22T04:35:13.860Z,14.10
2022-10-22T04:37:42.085Z,14.10
2022-10-22T04:40:11.979Z,14.00
2022-10-22T04:42:40.110Z,14.10
2022-10-22T04:45:08.994Z,14.10
2022-10-22T04:47:38.564Z,14.10
2022-10-22T04:50:08.417Z,14.10
2022-10-22T04:52:36.320Z,14.00
2022-10-22T04:55:04.345Z,14.00
2022-10-22T04:57:32.720Z,14.00
2022-10-22T05:00:00.592Z,14.00
2022-10-22T05:02:28.546Z,14.10
2022-10-22T05:04:57.848Z,14.10
2022-10-22T05:07:25.845Z,14.00
2022-10-22T05:09:54.952Z,14.10
2022-10-22T05:12:23.120Z,14.10
2022-10-22T05:14:51.344Z,14.10
2022-10-22T05:17:19.282Z,14.10
2022-10-22T05:19:47.115Z,14.10
2022-10-22T05:22:16.352Z,14.10
2022-10-22T05:24:44.281Z,14.10
2022-10-22T05:27:12.420Z,14.10
2022-10-22T05:29:40.394Z,14.10
2022-10-22T05:32:08.284Z,14.10
2022-10-22T05:34:37.056Z,14.10
2022-10-22T05:37:05.413Z,14.00
2022-10-22T05:39:36.773Z,14.00
2022-10-22T05:42:05.380Z,14.00
2022-10-22T05:44:33.368Z,14.10
2022-10-22T05:47:01.266Z,14.10
2022-10-22T05:49:29.240Z,14.10
2022-10-22T05:51:57.154Z,14.10
2022-10-22T05:54:25.060Z,14.10
2022-10-22T05:56:55.515Z,14.10
2022-10-22T05:59:23.406Z,14.00
2022-10-22T06:01:51.734Z,13.90
2022-10-22T06:04:19.694Z,13.70
2022-10-22T06:06:49.095Z,13.60
2022-10-22T06:09:20.828Z,13.50
2022-10-22T06:11:49.821Z,13.40
2022-10-22T06:14:20.498Z,13.30
2022-10-22T06:16:48.857Z,13.20
2022-10-22T06:19:19.903Z,13.20
2022-10-22T06:21:48.529Z,13.10
2022-10-22T06:24:16.921Z,13.10
2022-10-22T06:26:44.920Z,13.10
2022-10-22T06:29:12.837Z,13.10
2022-10-22T06:31:42.124Z,13.10
2022-10-22T06:34:12.750Z,13.20
2022-10-22T06:36:42.459Z,13.10
2022-10-22T06:39:13.158Z,13.20
2022-10-22T06:41:41.544Z,13.20
2022-10-22T06:44:14.501Z,13.30
2022-10-22T06:46:44.364Z,13.30
2022-10-22T06:49:14.828Z,13.40
2022-10-22T06:51:42.701Z,13.50
2022-10-22T06:54:10.922Z,13.50
2022-10-22T06:56:38.879Z,13.50
2022-10-22T06:59:06.736Z,13.60
2022-10-22T07:01:36.144Z,13.70
2022-10-22T07:04:09.794Z,13.70
2022-10-22T07:06:37.696Z,13.80
2022-10-22T07:09:05.935Z,13.80
2022-10-22T07:11:40.551Z,13.80
2022-10-22T07:14:08.963Z,13.90
2022-10-22T07:16:37.764Z,14.00
2022-10-22T07:19:07.185Z,14.10
2022-10-22T07:21:36.951Z,14.10
2022-10-22T07:24:05.200Z,14.10
2022-10-22T07:26:33.205Z,14.10
2022-10-22T07:29:01.430Z,14.10
2022-10-22T07:31:29.767Z,14.30
2022-10-22T07:33:58.041Z,14.40
2022-10-22T07:36:27.783Z,14.50
2022-10-22T07:38:57.738Z,14.60
2022-10-22T07:41:26.138Z,14.70
2022-10-22T07:43:54.177Z,14.70
2022-10-22T07:46:22.450Z,14.70
2022-10-22T07:48:50.639Z,14.70
2022-10-22T07:51:18.659Z,14.60
2022-10-22T07:53:47.956Z,14.60
2022-10-22T07:56:15.904Z,14.60
2022-10-22T07:58:44.099Z,14.60
2022-10-22T08:01:12.316Z,14.60
2022-10-22T08:03:40.292Z,14.70
2022-10-22T08:06:08.754Z,14.60
2022-10-22T08:08:36.866Z,14.60
2022-10-22T08:11:06.263Z,14.70
2022-10-22T08:13:34.187Z,14.70
2022-10-22T08:16:03.036Z,14.60
2022-10-22T08:18:31.480Z,14.60
2022-10-22T08:20:59.738Z,14.70
2022-10-22T08:23:28.959Z,14.70
2022-10-22T08:25:58.438Z,14.90
2022-10-22T08:28:30.299Z,14.90
2022-10-22T08:30:58.338Z,15.10
2022-10-22T08:33:26.328Z,15.20
2022-10-22T08:35:54.449Z,15.40
2022-10-22T08:38:22.412Z,15.30
2022-10-22T08:40:52.638Z,15.30
2022-10-22T08:43:57.855Z,15.30
2022-10-22T08:46:34.815Z,15.20
2022-10-22T08:49:05.807Z,15.20
2022-10-22T08:51:36.776Z,15.20
2022-10-22T08:54:16.406Z,15.30
2022-10-22T08:56:46.896Z,15.40
2022-10-22T08:59:21.306Z,15.30
2022-10-22T09:01:52.634Z,15.40
2022-10-22T09:04:26.161Z,15.60
2022-10-22T09:06:55.004Z,15.70
2022-10-22T09:09:25.770Z,15.70
2022-10-22T09:11:55.465Z,16.00
2022-10-22T09:14:26.755Z,16.10
2022-10-22T09:17:13.923Z,16.30
2022-10-22T09:19:54.259Z,16.40
2022-10-22T09:22:30.598Z,16.40
2022-10-22T09:25:00.949Z,16.40
2022-10-22T09:27:30.523Z,16.20
2022-10-22T09:29:59.850Z,16.20
2022-10-22T09:32:28.183Z,16.20
2022-10-22T09:34:59.030Z,16.10
2022-10-22T09:37:28.986Z,16.00
2022-10-22T09:39:58.956Z,16.10
2022-10-22T09:42:26.889Z,16.10
2022-10-22T09:44:56.330Z,16.20
2022-10-22T09:47:43.215Z,16.10
2022-10-22T09:50:26.346Z,16.30
2022-10-22T09:53:01.916Z,16.40
2022-10-22T09:55:30.331Z,16.40
2022-10-22T09:58:00.916Z,16.50
2022-10-22T10:00:30.727Z,16.50
2022-10-22T10:03:01.269Z,16.70
2022-10-22T10:05:32.563Z,16.80
2022-10-22T10:08:03.771Z,16.90
2022-10-22T10:10:46.592Z,17.00
2022-10-22T10:13:41.510Z,17.20
2022-10-22T10:16:16.940Z,17.40
2022-10-22T10:19:00.538Z,17.50
2022-10-22T10:21:36.055Z,17.30
2022-10-22T10:24:16.163Z,17.30
2022-10-22T10:26:50.903Z,17.10
2022-10-22T10:29:33.835Z,16.90
2022-10-22T10:32:13.722Z,16.90
2022-10-22T10:34:49.259Z,17.00
2022-10-22T10:37:23.155Z,17.00
2022-10-22T10:40:22.858Z,16.80
2022-10-22T10:42:56.498Z,16.70
2022-10-22T10:45:30.109Z,17.00
2022-10-22T10:48:22.964Z,17.10
2022-10-22T10:51:04.933Z,16.90
2022-10-22T10:53:48.403Z,17.10
2022-10-22T10:56:29.626Z,17.30
2022-10-22T10:59:08.395Z,17.40
2022-10-22T11:01:48.097Z,17.50
2022-10-22T11:04:39.900Z,17.40
2022-10-22T11:07:30.028Z,18.00
2022-10-22T11:10:05.516Z,18.30
2022-10-22T11:12:38.037Z,18.40
2022-10-22T11:15:17.539Z,18.10
2022-10-22T11:17:49.738Z,18.20
2022-10-22T11:20:23.455Z,18.30
2022-10-22T11:23:18.073Z,18.30
2022-10-22T11:25:47.466Z,18.20
2022-10-22T11:28:20.828Z,18.20
2022-10-22T11:30:54.521Z,18.20
2022-10-22T11:33:27.782Z,18.10
2022-10-22T11:35:58.421Z,17.90
2022-10-22T11:38:30.678Z,17.80
2022-10-22T11:41:03.577Z,18.10
2022-10-22T11:43:35.501Z,18.20
2022-10-22T11:46:25.604Z,18.50
2022-10-22T11:49:03.703Z,18.90
2022-10-22T11:51:37.848Z,19.00
2022-10-22T11:54:31.298Z,18.60
2022-10-22T11:57:18.892Z,18.40
2022-10-22T11:59:51.281Z,18.40
2022-10-22T12:02:30.541Z,18.50
2022-10-22T12:05:20.184Z,18.50
2022-10-22T12:07:57.072Z,18.50
2022-10-22T12:10:29.232Z,18.50
2022-10-22T12:12:59.292Z,18.70
2022-10-22T12:15:28.569Z,18.70
2022-10-22T12:18:01.865Z,18.60
2022-10-22T12:20:30.534Z,18.40
2022-10-22T12:22:59.817Z,18.40
2022-10-22T12:25:35.722Z,18.70
2022-10-22T12:28:04.292Z,19.00
2022-10-22T12:30:34.750Z,19.00
2022-10-22T12:33:05.457Z,19.00
2022-10-22T12:35:35.616Z,19.30
2022-10-22T12:38:06.409Z,19.50
2022-10-22T12:40:37.985Z,19.30
2022-10-22T12:43:16.198Z,19.00
2022-10-22T12:45:47.902Z,19.00
2022-10-22T12:48:19.343Z,18.90
2022-10-22T12:50:51.811Z,19.30
2022-10-22T12:53:24.918Z,19.80
2022-10-22T12:55:56.579Z,19.70
2022-10-22T12:58:34.362Z,19.40
2022-10-22T13:01:02.574Z,19.20
2022-10-22T13:03:34.858Z,19.00
2022-10-22T13:06:23.891Z,19.00
2022-10-22T13:09:07.445Z,19.30
2022-10-22T13:11:42.896Z,19.30
2022-10-22T13:14:23.148Z,19.30
2022-10-22T13:17:14.915Z,19.10
2022-10-22T13:19:51.708Z,19.00
2022-10-22T13:22:34.035Z,19.00
2022-10-22T13:25:19.939Z,19.30
2022-10-22T13:27:51.217Z,19.30
2022-10-22T13:30:23.019Z,19.30
2022-10-22T13:32:52.719Z,19.10
2022-10-22T13:35:24.555Z,18.80
2022-10-22T13:37:52.549Z,18.70
2022-10-22T13:40:20.978Z,18.50
2022-10-22T13:42:50.197Z,18.50
2022-10-22T13:45:18.867Z,18.50
2022-10-22T13:47:50.548Z,18.50
2022-10-22T13:50:20.539Z,18.60
2022-10-22T13:52:52.245Z,18.90
2022-10-22T13:55:23.353Z,19.00
2022-10-22T13:57:53.214Z,19.00
2022-10-22T14:00:23.037Z,19.10
2022-10-22T14:02:54.338Z,19.10
2022-10-22T14:05:22.495Z,19.00
2022-10-22T14:07:50.808Z,19.00
2022-10-22T14:10:21.588Z,19.00
2022-10-22T14:12:52.556Z,18.90
2022-10-22T14:15:24.980Z,18.90
2022-10-22T14:17:57.277Z,18.90
2022-10-22T14:20:28.045Z,18.90
2022-10-22T14:22:56.656Z,19.00
2022-10-22T14:25:26.423Z,19.10
2022-10-22T14:27:54.733Z,19.10
2022-10-22T14:30:27.054Z,19.10
2022-10-22T14:32:54.945Z,19.00
2022-10-22T14:35:23.740Z,19.00
2022-10-22T14:37:52.197Z,18.90
2022-10-22T14:40:21.501Z,18.80
2022-10-22T14:42:50.201Z,18.70
2022-10-22T14:45:20.957Z,18.80
2022-10-22T14:47:50.786Z,18.90
2022-10-22T14:50:19.414Z,19.00
2022-10-22T14:52:47.467Z,19.00
2022-10-22T14:55:17.925Z,18.80
2022-10-22T14:57:46.171Z,18.60
2022-10-22T15:00:16.310Z,18.50
2022-10-22T15:02:44.852Z,18.40
2022-10-22T15:05:15.317Z,18.40
2022-10-22T15:07:43.466Z,18.40
2022-10-22T15:10:12.000Z,18.30
2022-10-22T15:12:39.884Z,18.20
2022-10-22T15:15:08.914Z,18.20
2022-10-22T15:17:36.824Z,18.30
2022-10-22T15:20:05.784Z,18.40
2022-10-22T15:22:36.061Z,18.40
2022-10-22T15:25:06.426Z,18.40
2022-10-22T15:27:34.426Z,18.50
2022-10-22T15:32:35.935Z,18.50
2022-10-22T15:35:05.714Z,18.40
2022-10-22T15:37:37.694Z,18.30
2022-10-22T15:40:07.921Z,18.20
2022-10-22T15:42:35.824Z,18.10
2022-10-22T15:45:03.744Z,17.90
2022-10-22T15:47:31.657Z,17.90
2022-10-22T15:49:59.522Z,17.80
2022-10-22T15:52:27.484Z,17.70
2022-10-22T15:54:56.683Z,17.60
2022-10-22T15:57:24.551Z,17.40
2022-10-22T15:59:52.444Z,17.30
2022-10-22T16:02:20.339Z,17.20
2022-10-22T16:04:48.232Z,17.10
2022-10-22T16:07:17.309Z,17.00
2022-10-22T16:09:46.738Z,16.90
2022-10-22T16:12:17.326Z,16.80
2022-10-22T16:14:45.326Z,16.70
2022-10-22T16:17:13.226Z,16.60
2022-10-22T16:19:41.103Z,16.60
2022-10-22T16:22:11.488Z,16.40
2022-10-22T16:24:40.324Z,16.30
2022-10-22T16:27:08.673Z,16.20
2022-10-22T16:29:40.332Z,16.10
2022-10-22T16:32:09.132Z,15.90
2022-10-22T16:34:37.007Z,15.80
2022-10-22T16:37:10.185Z,15.80
2022-10-22T16:39:38.761Z,15.70
2022-10-22T16:42:07.255Z,15.50
2022-10-22T16:44:35.203Z,15.40
2022-10-22T16:47:04.518Z,15.20
2022-10-22T16:49:32.389Z,15.20
2022-10-22T16:52:00.275Z,15.20
2022-10-22T16:54:28.219Z,15.10
2022-10-22T16:56:56.073Z,15.00
2022-10-22T16:59:24.038Z,15.00
2022-10-22T17:01:51.959Z,15.00
2022-10-22T17:04:22.395Z,14.90
2022-10-22T17:06:50.256Z,14.80
2022-10-22T17:09:18.210Z,14.70
2022-10-22T17:11:46.373Z,14.70
2022-10-22T17:14:14.234Z,14.70
2022-10-22T17:16:42.117Z,14.80
2022-10-22T17:19:28.930Z,14.60
2022-10-22T17:22:14.899Z,14.70
2022-10-22T17:25:37.126Z,14.70
2022-10-22T17:28:05.051Z,14.60
2022-10-22T17:30:32.930Z,14.60
2022-10-22T17:33:01.386Z,14.50
2022-10-22T17:35:29.311Z,14.40
2022-10-22T17:37:58.618Z,14.50
2022-10-22T17:40:27.011Z,14.40
2022-10-22T17:42:54.907Z,14.40
2022-10-22T17:45:23.827Z,14.30
2022-10-22T17:47:51.997Z,14.20
2022-10-22T17:50:20.254Z,14.30
2022-10-22T17:52:48.191Z,14.40
2022-10-22T17:55:17.548Z,14.30
2022-10-22T17:57:45.444Z,14.30
2022-10-22T18:00:16.117Z,14.20
2022-10-22T18:02:44.450Z,14.20
2022-10-22T18:05:13.394Z,14.10
2022-10-22T18:07:41.300Z,13.80
2022-10-22T18:10:10.314Z,13.60
2022-10-22T18:12:39.808Z,13.70
2022-10-22T18:15:08.710Z,13.80
2022-10-22T18:17:39.676Z,13.80
2022-10-22T18:20:09.240Z,13.70
2022-10-22T18:22:37.188Z,13.60
2022-10-22T18:25:05.675Z,13.60
2022-10-22T18:27:34.564Z,13.60
2022-10-22T18:30:03.959Z,13.50
2022-10-22T18:32:34.335Z,13.30
2022-10-22T18:35:02.225Z,13.30
2022-10-22T18:37:30.604Z,13.30
2022-10-22T18:39:58.568Z,13.30
2022-10-22T18:42:29.140Z,13.50
2022-10-22T18:45:00.731Z,13.50
2022-10-22T18:47:29.965Z,13.50
2022-10-22T18:49:57.994Z,13.60
2022-10-22T18:52:25.955Z,13.40
2022-10-22T18:54:54.315Z,13.40
2022-10-22T18:57:23.568Z,13.40
2022-10-22T18:59:53.604Z,13.30
2022-10-22T19:02:24.830Z,13.10
2022-10-22T19:05:00.679Z,13.00
2022-10-22T19:07:31.700Z,13.10
2022-10-22T19:10:02.812Z,13.10
2022-10-22T19:12:32.797Z,12.90
2022-10-22T19:15:03.223Z,12.90
2022-10-22T19:17:31.429Z,12.90
2022-10-22T19:20:04.342Z,12.90
2022-10-22T19:22:33.028Z,12.80
2022-10-22T19:25:09.630Z,12.80
2022-10-22T19:27:42.368Z,12.80
2022-10-22T19:30:11.992Z,13.00
2022-10-22T19:32:40.620Z,12.80
2022-10-22T19:35:10.696Z,12.80
2022-10-22T19:37:38.683Z,12.80
2022-10-22T19:40:09.123Z,12.90
2022-10-22T19:42:38.249Z,12.90
2022-10-22T19:45:19.135Z,12.80
2022-10-22T19:47:47.066Z,12.70
2022-10-22T19:50:17.294Z,12.70
2022-10-22T19:52:45.201Z,12.70
2022-10-22T19:55:13.135Z,12.70
2022-10-22T19:57:41.310Z,12.70
2022-10-22T20:00:10.608Z,12.80
2022-10-22T20:02:39.604Z,12.70
2022-10-22T20:05:08.451Z,12.80
2022-10-22T20:07:37.646Z,12.80
2022-10-22T20:10:06.857Z,12.80
2022-10-22T20:12:39.972Z,12.80
2022-10-22T20:15:09.335Z,12.80
2022-10-22T20:17:39.497Z,12.80
2022-10-22T20:20:08.118Z,12.80
2022-10-22T20:22:37.461Z,12.90
2022-10-22T20:25:06.534Z,12.80
2022-10-22T20:27:34.412Z,12.90
2022-10-22T20:30:02.663Z,12.80
2022-10-22T20:32:30.610Z,12.60
2022-10-22T20:34:58.471Z,12.50
2022-10-22T20:37:26.339Z,12.70
2022-10-22T20:39:55.612Z,12.80
2022-10-22T20:42:23.487Z,12.60
2022-10-22T20:44:51.536Z,12.60
2022-10-22T20:47:19.524Z,12.70
2022-10-22T20:49:48.992Z,12.60
2022-10-22T20:52:16.907Z,12.50
2022-10-22T20:54:46.131Z,12.50
2022-10-22T20:57:15.509Z,12.40
2022-10-22T20:59:46.161Z,12.50
2022-10-22T21:02:14.019Z,12.60
2022-10-22T21:04:44.112Z,12.70
2022-10-22T21:07:14.217Z,12.60
2022-10-22T21:09:42.125Z,12.80
2022-10-22T21:12:09.994Z,12.60
2022-10-22T21:14:39.224Z,12.50
2022-10-22T21:17:08.097Z,12.60
2022-10-22T21:19:36.075Z,12.60
2022-10-22T21:22:04.352Z,12.60
2022-10-22T21:24:32.636Z,12.50
2022-10-22T21:27:00.564Z,12.30
2022-10-22T21:29:28.584Z,12.40
2022-10-22T21:31:58.079Z,12.30
2022-10-22T21:34:26.219Z,12.20
2022-10-22T21:36:54.107Z,12.30
2022-10-22T21:39:22.003Z,12.10
2022-10-22T21:41:49.905Z,12.20
2022-10-22T21:44:17.716Z,12.20
2022-10-22T21:46:45.628Z,12.20
2022-10-22T21:49:14.868Z,12.30
2022-10-22T21:51:44.234Z,12.20
2022-10-22T21:54:13.538Z,12.20
2022-10-22T21:56:42.367Z,12.30
2022-10-22T21:59:10.255Z,12.30
2022-10-22T22:01:38.144Z,12.30
2022-10-22T22:04:07.375Z,12.30
2022-10-22T22:06:36.685Z,12.20
2022-10-22T22:09:08.702Z,12.10
2022-10-22T22:11:36.715Z,12.10
2022-10-22T22:14:04.596Z,12.00
2022-10-22T22:16:34.310Z,12.00
2022-10-22T22:21:40.126Z,12.00
2022-10-22T22:24:09.088Z,12.00
2022-10-22T22:26:37.623Z,12.00
2022-10-22T22:29:05.530Z,12.00
2022-10-22T22:31:35.436Z,12.00
2022-10-22T22:34:05.230Z,12.10
2022-10-22T22:36:35.775Z,12.00
2022-10-22T22:39:05.944Z,11.80
2022-10-22T22:41:34.257Z,11.70
2022-10-22T22:44:02.584Z,11.80
2022-10-22T22:46:30.580Z,11.90
2022-10-22T22:48:58.417Z,11.90
2022-10-22T22:51:26.433Z,11.90
2022-10-22T22:53:54.346Z,11.70
2022-10-22T22:56:25.087Z,11.80
2022-10-22T22:58:53.351Z,11.80
2022-10-22T23:01:23.598Z,11.70
2022-10-22T23:03:55.099Z,11.70
2022-10-22T23:06:23.032Z,11.80
2022-10-22T23:08:52.438Z,11.60
2022-10-22T23:11:21.109Z,11.60
2022-10-22T23:13:54.385Z,11.70
2022-10-22T23:16:24.537Z,11.60
2022-10-22T23:18:54.362Z,11.50
2022-10-22T23:21:25.449Z,11.50
2022-10-22T23:23:55.533Z,11.50
2022-10-22T23:26:26.187Z,11.40
2022-10-22T23:28:55.970Z,11.40
2022-10-22T23:31:23.989Z,11.50
2022-10-22T23:33:51.931Z,11.50
2022-10-22T23:36:19.800Z,11.40
2022-10-22T23:38:47.686Z,11.40
2022-10-22T23:41:15.568Z,11.30
2022-10-22T23:43:43.454Z,11.20
2022-10-22T23:46:14.600Z,11.20
2022-10-22T23:48:42.622Z,11.20
2022-10-22T23:51:12.652Z,11.20
2022-10-22T23:53:41.602Z,11.10
2022-10-22T23:56:11.857Z,11.10
2022-10-22T23:58:40.367Z,11.10
